Portada
METAR-TAF:

METAR-TAF

Aeroports :

Bozen, Itàlia

latitud: 46-28N, longitud: 011-20E, altitud: 262 m

Observació

L'informe es va fer fa 2 hores i 20 minuts, a les 20:50 UTC
Vent 3 kt amb direcció variable
Temperatura 25°C
Humitat 69%
Pressió 1018 hPa
Visibilitat 10 km o més
Escasses núvols a una alçada de 10000 ft

METAR: LIPB 182050Z VRB03KT 9999 FEW100 25/19 Q1018

Hora: 01:10 (23:10 UTC)

Pronòstic

L'informe es va fer fa 6 hores i 10 minuts, a les 17:00 UTC
Pronòstic vàlid del 18 a les 18 UTC al 19 a les 18 UTC
Vent 5 kt amb direcció variable
Visibilitat 10 km o més
Escasses núvols a una alçada de 7000 ft
Temporalment
l' 18 a les 18 UTC al 18 a les 24 UTC
xàfecs de pluja
Temporalment
l' 19 a les 12 UTC al 19 a les 18 UTC
Visibilitat: 4000 m
tempesta, pluja,

TAF: LIPB 181700Z 1818/1918 VRB05KT 9999 FEW070 TEMPO 1818/1824 SHRA TEMPO 1912/1918 4000 TSRA

Observacions i pronòstics meteorològics de més de 4000 aeroports (METAR i TAF).

Les estacions disponibles són els punts grocs i vermells al mapa.

Posi el ratolí al punt desitjat per veure el nom de l'estació.

Feu clic per veure les observacions i els pronòstics meteorològics.

Per canviar el mapa: feu clic els botons verds amb una creu de color negre per apropar; al botó verd amb un guió per allunyar la imatge; o en les fletxes verdes per a mapes adjacents.


METAR-TAF: